sensor_id;sensor_type;location;lat;lon;timestamp;temperature;humidity
8711;DHT22;4392;47.400;8.062;2022-07-31T00:01:29;24.40;70.20
8711;DHT22;4392;47.400;8.062;2022-07-31T00:03:57;24.10;70.00
8711;DHT22;4392;47.400;8.062;2022-07-31T00:06:23;24.00;70.60
8711;DHT22;4392;47.400;8.062;2022-07-31T00:08:49;23.90;70.90
8711;DHT22;4392;47.400;8.062;2022-07-31T00:11:15;23.80;71.30
8711;DHT22;4392;47.400;8.062;2022-07-31T00:13:41;23.80;71.90
8711;DHT22;4392;47.400;8.062;2022-07-31T00:16:06;23.70;72.30
8711;DHT22;4392;47.400;8.062;2022-07-31T00:18:32;23.60;73.10
8711;DHT22;4392;47.400;8.062;2022-07-31T00:21:00;23.60;73.60
8711;DHT22;4392;47.400;8.062;2022-07-31T00:23:26;23.60;73.80
8711;DHT22;4392;47.400;8.062;2022-07-31T00:25:52;23.60;73.40
8711;DHT22;4392;47.400;8.062;2022-07-31T00:28:18;23.50;72.60
8711;DHT22;4392;47.400;8.062;2022-07-31T00:30:44;23.50;72.90
8711;DHT22;4392;47.400;8.062;2022-07-31T00:33:09;23.50;73.70
8711;DHT22;4392;47.400;8.062;2022-07-31T00:35:35;23.50;74.00
8711;DHT22;4392;47.400;8.062;2022-07-31T00:38:01;23.40;74.00
8711;DHT22;4392;47.400;8.062;2022-07-31T00:40:26;23.40;74.10
8711;DHT22;4392;47.400;8.062;2022-07-31T00:42:52;23.30;74.60
8711;DHT22;4392;47.400;8.062;2022-07-31T00:45:18;23.30;75.00
8711;DHT22;4392;47.400;8.062;2022-07-31T00:47:44;23.30;75.10
8711;DHT22;4392;47.400;8.062;2022-07-31T00:50:11;23.30;75.40
8711;DHT22;4392;47.400;8.062;2022-07-31T00:52:37;23.30;75.70
8711;DHT22;4392;47.400;8.062;2022-07-31T00:55:03;23.30;76.10
8711;DHT22;4392;47.400;8.062;2022-07-31T00:57:29;23.20;76.90
8711;DHT22;4392;47.400;8.062;2022-07-31T00:59:55;23.20;76.90
8711;DHT22;4392;47.400;8.062;2022-07-31T01:02:20;23.20;76.80
8711;DHT22;4392;47.400;8.062;2022-07-31T01:04:46;23.10;76.70
8711;DHT22;4392;47.400;8.062;2022-07-31T01:07:12;23.10;76.90
8711;DHT22;4392;47.400;8.062;2022-07-31T01:09:37;23.10;77.10
8711;DHT22;4392;47.400;8.062;2022-07-31T01:12:30;23.00;77.30
8711;DHT22;4392;47.400;8.062;2022-07-31T01:15:01;23.00;78.40
8711;DHT22;4392;47.400;8.062;2022-07-31T01:17:28;22.90;78.50
8711;DHT22;4392;47.400;8.062;2022-07-31T01:19:57;22.90;78.90
8711;DHT22;4392;47.400;8.062;2022-07-31T01:23:07;22.90;79.00
8711;DHT22;4392;47.400;8.062;2022-07-31T01:25:39;22.80;79.60
8711;DHT22;4392;47.400;8.062;2022-07-31T01:31:23;22.80;80.00
8711;DHT22;4392;47.400;8.062;2022-07-31T01:33:37;22.90;80.10
8711;DHT22;4392;47.400;8.062;2022-07-31T01:36:09;22.80;80.50
8711;DHT22;4392;47.400;8.062;2022-07-31T01:38:40;22.80;80.50
8711;DHT22;4392;47.400;8.062;2022-07-31T01:41:10;22.70;80.90
8711;DHT22;4392;47.400;8.062;2022-07-31T01:43:40;22.80;80.70
8711;DHT22;4392;47.400;8.062;2022-07-31T01:46:11;22.80;80.70
8711;DHT22;4392;47.400;8.062;2022-07-31T01:48:38;22.80;80.80
8711;DHT22;4392;47.400;8.062;2022-07-31T01:51:06;22.70;80.60
8711;DHT22;4392;47.400;8.062;2022-07-31T01:53:34;22.60;81.00
8711;DHT22;4392;47.400;8.062;2022-07-31T01:56:01;22.60;81.30
8711;DHT22;4392;47.400;8.062;2022-07-31T01:58:38;22.60;81.10
8711;DHT22;4392;47.400;8.062;2022-07-31T02:01:08;22.60;82.00
8711;DHT22;4392;47.400;8.062;2022-07-31T02:03:36;22.50;81.80
8711;DHT22;4392;47.400;8.062;2022-07-31T02:06:06;22.50;82.00
8711;DHT22;4392;47.400;8.062;2022-07-31T02:08:33;22.60;82.50
8711;DHT22;4392;47.400;8.062;2022-07-31T02:10:59;22.60;82.20
8711;DHT22;4392;47.400;8.062;2022-07-31T02:13:27;22.60;82.50
8711;DHT22;4392;47.400;8.062;2022-07-31T02:15:55;22.60;82.50
8711;DHT22;4392;47.400;8.062;2022-07-31T02:18:23;22.70;85.70
8711;DHT22;4392;47.400;8.062;2022-07-31T02:20:49;23.00;85.10
8711;DHT22;4392;47.400;8.062;2022-07-31T02:23:18;23.30;84.20
8711;DHT22;4392;47.400;8.062;2022-07-31T02:25:45;23.40;83.30
8711;DHT22;4392;47.400;8.062;2022-07-31T02:28:16;23.50;82.60
8711;DHT22;4392;47.400;8.062;2022-07-31T02:30:47;23.50;81.50
8711;DHT22;4392;47.400;8.062;2022-07-31T02:33:19;23.60;81.20
8711;DHT22;4392;47.400;8.062;2022-07-31T02:35:53;23.50;79.50
8711;DHT22;4392;47.400;8.062;2022-07-31T02:38:22;23.30;80.50
8711;DHT22;4392;47.400;8.062;2022-07-31T02:40:49;23.10;80.90
8711;DHT22;4392;47.400;8.062;2022-07-31T02:43:15;23.00;81.70
8711;DHT22;4392;47.400;8.062;2022-07-31T02:45:43;22.90;82.00
8711;DHT22;4392;47.400;8.062;2022-07-31T02:48:12;22.80;82.60
8711;DHT22;4392;47.400;8.062;2022-07-31T02:50:38;22.80;82.90
8711;DHT22;4392;47.400;8.062;2022-07-31T02:53:06;22.70;83.30
8711;DHT22;4392;47.400;8.062;2022-07-31T02:55:33;22.70;83.80
8711;DHT22;4392;47.400;8.062;2022-07-31T02:58:00;22.60;84.30
8711;DHT22;4392;47.400;8.062;2022-07-31T03:00:29;22.60;84.60
8711;DHT22;4392;47.400;8.062;2022-07-31T03:02:55;22.40;87.10
8711;DHT22;4392;47.400;8.062;2022-07-31T03:05:23;22.40;86.70
8711;DHT22;4392;47.400;8.062;2022-07-31T03:07:51;22.40;87.20
8711;DHT22;4392;47.400;8.062;2022-07-31T03:10:17;22.40;87.80
8711;DHT22;4392;47.400;8.062;2022-07-31T03:12:46;22.40;88.20
8711;DHT22;4392;47.400;8.062;2022-07-31T03:15:17;22.30;88.30
8711;DHT22;4392;47.400;8.062;2022-07-31T03:17:47;22.40;89.30
8711;DHT22;4392;47.400;8.062;2022-07-31T03:20:14;22.40;88.20
8711;DHT22;4392;47.400;8.062;2022-07-31T03:22:41;22.40;89.00
8711;DHT22;4392;47.400;8.062;2022-07-31T03:25:07;22.40;89.40
8711;DHT22;4392;47.400;8.062;2022-07-31T03:27:36;22.30;89.50
8711;DHT22;4392;47.400;8.062;2022-07-31T03:30:03;22.30;90.00
8711;DHT22;4392;47.400;8.062;2022-07-31T03:32:29;22.30;89.50
8711;DHT22;4392;47.400;8.062;2022-07-31T03:34:57;22.20;88.70
8711;DHT22;4392;47.400;8.062;2022-07-31T03:37:23;22.10;88.80
8711;DHT22;4392;47.400;8.062;2022-07-31T03:39:49;22.10;89.30
8711;DHT22;4392;47.400;8.062;2022-07-31T03:42:15;22.00;90.00
8711;DHT22;4392;47.400;8.062;2022-07-31T03:44:42;21.80;90.10
8711;DHT22;4392;47.400;8.062;2022-07-31T03:47:08;21.80;90.40
8711;DHT22;4392;47.400;8.062;2022-07-31T03:49:36;21.80;90.40
8711;DHT22;4392;47.400;8.062;2022-07-31T03:52:02;21.90;90.50
8711;DHT22;4392;47.400;8.062;2022-07-31T03:54:27;21.90;90.80
8711;DHT22;4392;47.400;8.062;2022-07-31T03:56:56;21.90;90.50
8711;DHT22;4392;47.400;8.062;2022-07-31T03:59:25;21.90;90.70
8711;DHT22;4392;47.400;8.062;2022-07-31T04:01:51;21.90;90.80
8711;DHT22;4392;47.400;8.062;2022-07-31T04:04:18;22.00;90.90
8711;DHT22;4392;47.400;8.062;2022-07-31T04:06:44;22.00;91.00
8711;DHT22;4392;47.400;8.062;2022-07-31T04:09:10;21.90;90.80
8711;DHT22;4392;47.400;8.062;2022-07-31T04:11:35;21.90;90.80
8711;DHT22;4392;47.400;8.062;2022-07-31T04:14:02;21.90;90.80
8711;DHT22;4392;47.400;8.062;2022-07-31T04:16:29;21.90;90.70
8711;DHT22;4392;47.400;8.062;2022-07-31T04:18:57;21.90;91.40
8711;DHT22;4392;47.400;8.062;2022-07-31T04:21:23;21.60;93.00
8711;DHT22;4392;47.400;8.062;2022-07-31T04:23:51;21.70;92.70
8711;DHT22;4392;47.400;8.062;2022-07-31T04:26:17;21.80;92.60
8711;DHT22;4392;47.400;8.062;2022-07-31T04:28:42;21.90;92.40
8711;DHT22;4392;47.400;8.062;2022-07-31T04:31:08;21.90;92.40
8711;DHT22;4392;47.400;8.062;2022-07-31T04:33:34;21.90;92.70
8711;DHT22;4392;47.400;8.062;2022-07-31T04:36:00;21.90;92.50
8711;DHT22;4392;47.400;8.062;2022-07-31T04:38:25;21.90;92.60
8711;DHT22;4392;47.400;8.062;2022-07-31T04:40:51;21.90;92.70
8711;DHT22;4392;47.400;8.062;2022-07-31T04:43:17;21.90;92.80
8711;DHT22;4392;47.400;8.062;2022-07-31T04:45:43;21.90;93.00
8711;DHT22;4392;47.400;8.062;2022-07-31T04:48:10;22.00;93.20
8711;DHT22;4392;47.400;8.062;2022-07-31T04:50:36;22.00;93.40
8711;DHT22;4392;47.400;8.062;2022-07-31T04:53:02;21.90;93.40
8711;DHT22;4392;47.400;8.062;2022-07-31T04:55:28;21.80;93.70
8711;DHT22;4392;47.400;8.062;2022-07-31T04:57:56;21.80;93.60
8711;DHT22;4392;47.400;8.062;2022-07-31T05:00:21;21.80;93.50
8711;DHT22;4392;47.400;8.062;2022-07-31T05:02:47;21.90;93.50
8711;DHT22;4392;47.400;8.062;2022-07-31T05:05:15;21.80;93.30
8711;DHT22;4392;47.400;8.062;2022-07-31T05:07:43;21.90;92.60
8711;DHT22;4392;47.400;8.062;2022-07-31T05:10:09;21.90;92.30
8711;DHT22;4392;47.400;8.062;2022-07-31T05:12:34;21.90;92.20
8711;DHT22;4392;47.400;8.062;2022-07-31T05:15:00;21.90;92.50
8711;DHT22;4392;47.400;8.062;2022-07-31T05:17:26;21.90;92.60
8711;DHT22;4392;47.400;8.062;2022-07-31T05:19:54;21.90;92.50
8711;DHT22;4392;47.400;8.062;2022-07-31T05:22:22;21.90;92.40
8711;DHT22;4392;47.400;8.062;2022-07-31T05:24:47;21.80;92.70
8711;DHT22;4392;47.400;8.062;2022-07-31T05:27:13;21.80;92.70
8711;DHT22;4392;47.400;8.062;2022-07-31T05:29:39;21.90;92.20
8711;DHT22;4392;47.400;8.062;2022-07-31T05:32:07;21.90;92.50
8711;DHT22;4392;47.400;8.062;2022-07-31T05:34:33;21.90;92.00
8711;DHT22;4392;47.400;8.062;2022-07-31T05:37:01;21.90;92.10
8711;DHT22;4392;47.400;8.062;2022-07-31T05:39:29;21.90;92.30
8711;DHT22;4392;47.400;8.062;2022-07-31T05:41:56;21.90;92.40
8711;DHT22;4392;47.400;8.062;2022-07-31T05:44:22;21.90;92.40
8711;DHT22;4392;47.400;8.062;2022-07-31T05:46:48;21.90;92.10
8711;DHT22;4392;47.400;8.062;2022-07-31T05:49:14;21.90;92.00
8711;DHT22;4392;47.400;8.062;2022-07-31T05:51:44;21.90;91.90
8711;DHT22;4392;47.400;8.062;2022-07-31T05:54:18;21.90;91.70
8711;DHT22;4392;47.400;8.062;2022-07-31T05:56:44;21.90;91.60
8711;DHT22;4392;47.400;8.062;2022-07-31T05:59:10;21.90;91.70
8711;DHT22;4392;47.400;8.062;2022-07-31T06:01:36;21.90;91.50
8711;DHT22;4392;47.400;8.062;2022-07-31T06:04:01;21.90;91.70
8711;DHT22;4392;47.400;8.062;2022-07-31T06:06:27;21.90;91.70
8711;DHT22;4392;47.400;8.062;2022-07-31T06:08:53;21.90;91.70
8711;DHT22;4392;47.400;8.062;2022-07-31T06:11:19;21.90;91.90
8711;DHT22;4392;47.400;8.062;2022-07-31T06:13:47;21.90;91.80
8711;DHT22;4392;47.400;8.062;2022-07-31T06:16:13;21.90;91.90
8711;DHT22;4392;47.400;8.062;2022-07-31T06:18:39;21.70;92.40
8711;DHT22;4392;47.400;8.062;2022-07-31T06:21:06;21.80;92.40
8711;DHT22;4392;47.400;8.062;2022-07-31T06:23:32;21.90;91.80
8711;DHT22;4392;47.400;8.062;2022-07-31T06:25:58;22.00;90.70
8711;DHT22;4392;47.400;8.062;2022-07-31T06:28:24;22.00;90.50
8711;DHT22;4392;47.400;8.062;2022-07-31T06:30:49;22.00;90.40
8711;DHT22;4392;47.400;8.062;2022-07-31T06:33:15;22.00;90.00
8711;DHT22;4392;47.400;8.062;2022-07-31T06:35:41;22.00;88.60
8711;DHT22;4392;47.400;8.062;2022-07-31T06:38:06;22.00;88.30
8711;DHT22;4392;47.400;8.062;2022-07-31T06:40:32;22.10;88.40
8711;DHT22;4392;47.400;8.062;2022-07-31T06:42:58;22.10;88.70
8711;DHT22;4392;47.400;8.062;2022-07-31T06:45:23;22.10;88.90
8711;DHT22;4392;47.400;8.062;2022-07-31T06:47:49;22.10;89.60
8711;DHT22;4392;47.400;8.062;2022-07-31T06:50:15;22.10;89.90
8711;DHT22;4392;47.400;8.062;2022-07-31T06:52:43;22.10;90.00
8711;DHT22;4392;47.400;8.062;2022-07-31T06:55:09;22.10;90.00
8711;DHT22;4392;47.400;8.062;2022-07-31T06:57:36;22.20;90.20
8711;DHT22;4392;47.400;8.062;2022-07-31T07:00:03;22.20;90.30
8711;DHT22;4392;47.400;8.062;2022-07-31T07:02:31;22.20;90.40
8711;DHT22;4392;47.400;8.062;2022-07-31T07:05:00;22.30;90.40
8711;DHT22;4392;47.400;8.062;2022-07-31T07:07:25;22.30;90.20
8711;DHT22;4392;47.400;8.062;2022-07-31T07:09:51;22.40;90.30
8711;DHT22;4392;47.400;8.062;2022-07-31T07:12:18;22.30;90.20
8711;DHT22;4392;47.400;8.062;2022-07-31T07:14:45;22.30;90.50
8711;DHT22;4392;47.400;8.062;2022-07-31T07:17:10;22.40;90.40
8711;DHT22;4392;47.400;8.062;2022-07-31T07:19:39;22.40;90.30
8711;DHT22;4392;47.400;8.062;2022-07-31T07:22:06;22.40;90.40
8711;DHT22;4392;47.400;8.062;2022-07-31T07:24:31;22.40;89.80
8711;DHT22;4392;47.400;8.062;2022-07-31T07:26:57;22.40;90.20
8711;DHT22;4392;47.400;8.062;2022-07-31T07:29:25;22.40;89.80
8711;DHT22;4392;47.400;8.062;2022-07-31T07:31:51;22.40;90.10
8711;DHT22;4392;47.400;8.062;2022-07-31T07:34:19;22.50;90.10
8711;DHT22;4392;47.400;8.062;2022-07-31T07:36:45;22.40;90.20
8711;DHT22;4392;47.400;8.062;2022-07-31T07:39:10;22.40;90.20
8711;DHT22;4392;47.400;8.062;2022-07-31T07:41:36;22.60;89.50
8711;DHT22;4392;47.400;8.062;2022-07-31T07:44:04;22.70;88.50
8711;DHT22;4392;47.400;8.062;2022-07-31T07:46:30;22.70;88.30
8711;DHT22;4392;47.400;8.062;2022-07-31T07:48:56;22.60;87.00
8711;DHT22;4392;47.400;8.062;2022-07-31T07:51:22;22.70;87.10
8711;DHT22;4392;47.400;8.062;2022-07-31T07:53:47;22.70;85.20
8711;DHT22;4392;47.400;8.062;2022-07-31T07:56:15;22.70;85.40
8711;DHT22;4392;47.400;8.062;2022-07-31T07:58:43;22.80;84.00
8711;DHT22;4392;47.400;8.062;2022-07-31T08:01:09;22.70;83.10
8711;DHT22;4392;47.400;8.062;2022-07-31T08:03:37;22.70;82.20
8711;DHT22;4392;47.400;8.062;2022-07-31T08:06:05;22.70;82.50
8711;DHT22;4392;47.400;8.062;2022-07-31T08:08:30;22.80;82.30
8711;DHT22;4392;47.400;8.062;2022-07-31T08:10:58;22.80;81.40
8711;DHT22;4392;47.400;8.062;2022-07-31T08:13:28;22.90;80.30
8711;DHT22;4392;47.400;8.062;2022-07-31T08:15:53;23.00;79.80
8711;DHT22;4392;47.400;8.062;2022-07-31T08:18:22;22.90;78.60
8711;DHT22;4392;47.400;8.062;2022-07-31T08:20:47;22.90;78.70
8711;DHT22;4392;47.400;8.062;2022-07-31T08:23:13;23.00;78.30
8711;DHT22;4392;47.400;8.062;2022-07-31T08:25:39;23.00;77.90
8711;DHT22;4392;47.400;8.062;2022-07-31T08:28:04;23.20;77.20
8711;DHT22;4392;47.400;8.062;2022-07-31T08:30:30;23.30;75.90
8711;DHT22;4392;47.400;8.062;2022-07-31T08:32:56;23.20;75.20
8711;DHT22;4392;47.400;8.062;2022-07-31T08:35:22;23.30;74.50
8711;DHT22;4392;47.400;8.062;2022-07-31T08:37:48;23.20;74.50
8711;DHT22;4392;47.400;8.062;2022-07-31T08:40:16;23.10;74.70
8711;DHT22;4392;47.400;8.062;2022-07-31T08:42:44;23.10;75.20
8711;DHT22;4392;47.400;8.062;2022-07-31T08:45:13;23.20;74.90
8711;DHT22;4392;47.400;8.062;2022-07-31T08:47:40;23.20;74.80
8711;DHT22;4392;47.400;8.062;2022-07-31T08:50:12;23.30;74.20
8711;DHT22;4392;47.400;8.062;2022-07-31T08:52:42;23.40;73.90
8711;DHT22;4392;47.400;8.062;2022-07-31T08:55:09;23.40;73.40
8711;DHT22;4392;47.400;8.062;2022-07-31T08:57:35;23.40;73.90
8711;DHT22;4392;47.400;8.062;2022-07-31T09:00:07;23.40;73.80
8711;DHT22;4392;47.400;8.062;2022-07-31T09:02:36;23.60;73.30
8711;DHT22;4392;47.400;8.062;2022-07-31T09:05:02;23.60;72.70
8711;DHT22;4392;47.400;8.062;2022-07-31T09:07:29;23.60;72.20
8711;DHT22;4392;47.400;8.062;2022-07-31T09:09:55;23.60;72.40
8711;DHT22;4392;47.400;8.062;2022-07-31T09:12:31;23.50;73.00
8711;DHT22;4392;47.400;8.062;2022-07-31T09:14:57;23.60;73.30
8711;DHT22;4392;47.400;8.062;2022-07-31T09:17:34;23.60;73.50
8711;DHT22;4392;47.400;8.062;2022-07-31T09:20:01;23.60;73.30
8711;DHT22;4392;47.400;8.062;2022-07-31T09:22:29;23.70;73.20
8711;DHT22;4392;47.400;8.062;2022-07-31T09:25:12;23.70;73.30
8711;DHT22;4392;47.400;8.062;2022-07-31T09:27:40;23.80;73.50
8711;DHT22;4392;47.400;8.062;2022-07-31T09:30:07;23.80;72.30
8711;DHT22;4392;47.400;8.062;2022-07-31T09:32:33;23.90;72.10
8711;DHT22;4392;47.400;8.062;2022-07-31T09:35:08;24.00;72.00
8711;DHT22;4392;47.400;8.062;2022-07-31T09:37:35;24.10;71.20
8711;DHT22;4392;47.400;8.062;2022-07-31T09:40:04;24.20;70.90
8711;DHT22;4392;47.400;8.062;2022-07-31T09:42:38;24.10;70.70
8711;DHT22;4392;47.400;8.062;2022-07-31T09:45:17;24.20;70.40
8711;DHT22;4392;47.400;8.062;2022-07-31T09:47:43;24.20;70.50
8711;DHT22;4392;47.400;8.062;2022-07-31T09:50:09;24.20;70.60
8711;DHT22;4392;47.400;8.062;2022-07-31T09:52:35;24.30;71.20
8711;DHT22;4392;47.400;8.062;2022-07-31T09:57:31;24.40;71.20
8711;DHT22;4392;47.400;8.062;2022-07-31T09:59:58;24.50;70.80
8711;DHT22;4392;47.400;8.062;2022-07-31T10:02:24;24.70;70.20
8711;DHT22;4392;47.400;8.062;2022-07-31T10:04:53;24.70;69.10
8711;DHT22;4392;47.400;8.062;2022-07-31T10:07:20;24.80;69.00
8711;DHT22;4392;47.400;8.062;2022-07-31T10:09:52;24.70;69.40
8711;DHT22;4392;47.400;8.062;2022-07-31T10:12:22;24.70;69.40
8711;DHT22;4392;47.400;8.062;2022-07-31T10:14:50;24.60;68.90
8711;DHT22;4392;47.400;8.062;2022-07-31T10:17:26;24.60;68.50
8711;DHT22;4392;47.400;8.062;2022-07-31T10:19:57;24.70;68.30
8711;DHT22;4392;47.400;8.062;2022-07-31T10:22:41;24.90;67.70
8711;DHT22;4392;47.400;8.062;2022-07-31T10:25:20;25.00;67.10
8711;DHT22;4392;47.400;8.062;2022-07-31T10:27:49;25.10;67.40
8711;DHT22;4392;47.400;8.062;2022-07-31T10:30:16;25.10;67.30
8711;DHT22;4392;47.400;8.062;2022-07-31T10:32:42;25.10;67.20
8711;DHT22;4392;47.400;8.062;2022-07-31T10:35:08;25.10;66.50
8711;DHT22;4392;47.400;8.062;2022-07-31T10:38:00;25.10;65.60
8711;DHT22;4392;47.400;8.062;2022-07-31T10:40:43;25.10;63.80
8711;DHT22;4392;47.400;8.062;2022-07-31T10:45:54;25.20;62.50
8711;DHT22;4392;47.400;8.062;2022-07-31T10:48:21;25.20;61.20
8711;DHT22;4392;47.400;8.062;2022-07-31T10:51:02;25.40;60.70
8711;DHT22;4392;47.400;8.062;2022-07-31T10:53:29;25.30;60.60
8711;DHT22;4392;47.400;8.062;2022-07-31T10:56:06;25.40;60.50
8711;DHT22;4392;47.400;8.062;2022-07-31T10:58:46;25.40;60.70
8711;DHT22;4392;47.400;8.062;2022-07-31T11:01:13;25.50;60.00
8711;DHT22;4392;47.400;8.062;2022-07-31T11:03:41;25.70;59.60
8711;DHT22;4392;47.400;8.062;2022-07-31T11:06:15;25.60;59.80
8711;DHT22;4392;47.400;8.062;2022-07-31T11:08:42;25.50;60.90
8711;DHT22;4392;47.400;8.062;2022-07-31T11:11:09;25.50;61.40
8711;DHT22;4392;47.400;8.062;2022-07-31T11:13:49;25.50;61.60
8711;DHT22;4392;47.400;8.062;2022-07-31T11:16:16;25.80;61.60
8711;DHT22;4392;47.400;8.062;2022-07-31T11:18:43;25.70;60.20
8711;DHT22;4392;47.400;8.062;2022-07-31T11:21:11;25.60;59.70
8711;DHT22;4392;47.400;8.062;2022-07-31T11:23:36;25.70;59.50
8711;DHT22;4392;47.400;8.062;2022-07-31T11:26:07;25.90;58.90
8711;DHT22;4392;47.400;8.062;2022-07-31T11:28:34;25.80;58.80
8711;DHT22;4392;47.400;8.062;2022-07-31T11:31:04;25.80;58.80
8711;DHT22;4392;47.400;8.062;2022-07-31T11:35:56;25.90;58.30
8711;DHT22;4392;47.400;8.062;2022-07-31T11:38:27;26.00;58.00
8711;DHT22;4392;47.400;8.062;2022-07-31T11:40:53;26.10;58.50
8711;DHT22;4392;47.400;8.062;2022-07-31T11:43:18;26.00;58.50
8711;DHT22;4392;47.400;8.062;2022-07-31T11:45:47;26.00;57.80
8711;DHT22;4392;47.400;8.062;2022-07-31T11:48:15;26.10;57.10
8711;DHT22;4392;47.400;8.062;2022-07-31T11:50:42;26.00;57.30
8711;DHT22;4392;47.400;8.062;2022-07-31T11:53:09;26.00;57.10
8711;DHT22;4392;47.400;8.062;2022-07-31T11:58:14;26.00;56.80
8711;DHT22;4392;47.400;8.062;2022-07-31T12:03:28;26.10;57.00
8711;DHT22;4392;47.400;8.062;2022-07-31T12:05:54;26.20;57.10
8711;DHT22;4392;47.400;8.062;2022-07-31T12:08:21;26.20;57.20
8711;DHT22;4392;47.400;8.062;2022-07-31T12:10:50;26.20;57.00
8711;DHT22;4392;47.400;8.062;2022-07-31T12:13:17;26.20;56.90
8711;DHT22;4392;47.400;8.062;2022-07-31T12:15:58;26.20;56.60
8711;DHT22;4392;47.400;8.062;2022-07-31T12:18:28;26.20;56.20
8711;DHT22;4392;47.400;8.062;2022-07-31T12:20:57;26.30;55.70
8711;DHT22;4392;47.400;8.062;2022-07-31T12:23:36;26.50;55.30
8711;DHT22;4392;47.400;8.062;2022-07-31T12:26:03;26.40;55.40
8711;DHT22;4392;47.400;8.062;2022-07-31T12:28:29;26.40;55.30
8711;DHT22;4392;47.400;8.062;2022-07-31T12:30:58;26.40;55.30
8711;DHT22;4392;47.400;8.062;2022-07-31T12:33:25;26.50;55.40
8711;DHT22;4392;47.400;8.062;2022-07-31T12:35:52;26.50;55.50
8711;DHT22;4392;47.400;8.062;2022-07-31T12:38:25;26.70;55.20
8711;DHT22;4392;47.400;8.062;2022-07-31T12:41:04;26.70;54.60
8711;DHT22;4392;47.400;8.062;2022-07-31T12:43:31;26.80;54.10
8711;DHT22;4392;47.400;8.062;2022-07-31T12:45:59;26.80;54.50
8711;DHT22;4392;47.400;8.062;2022-07-31T12:48:32;26.80;54.70
8711;DHT22;4392;47.400;8.062;2022-07-31T12:50:59;26.80;54.50
8711;DHT22;4392;47.400;8.062;2022-07-31T12:53:29;26.80;54.80
8711;DHT22;4392;47.400;8.062;2022-07-31T12:55:57;26.70;54.90
8711;DHT22;4392;47.400;8.062;2022-07-31T12:58:26;26.90;55.60
8711;DHT22;4392;47.400;8.062;2022-07-31T13:00:56;27.10;54.70
8711;DHT22;4392;47.400;8.062;2022-07-31T13:03:21;27.30;54.00
8711;DHT22;4392;47.400;8.062;2022-07-31T13:05:47;27.30;54.10
8711;DHT22;4392;47.400;8.062;2022-07-31T13:08:13;27.30;54.30
8711;DHT22;4392;47.400;8.062;2022-07-31T13:10:39;27.20;54.70
8711;DHT22;4392;47.400;8.062;2022-07-31T13:13:05;27.00;54.60
8711;DHT22;4392;47.400;8.062;2022-07-31T13:15:30;26.90;54.20
8711;DHT22;4392;47.400;8.062;2022-07-31T13:17:58;26.90;54.50
8711;DHT22;4392;47.400;8.062;2022-07-31T13:20:26;27.00;53.90
8711;DHT22;4392;47.400;8.062;2022-07-31T13:22:52;27.10;53.60
8711;DHT22;4392;47.400;8.062;2022-07-31T13:25:18;27.20;53.40
8711;DHT22;4392;47.400;8.062;2022-07-31T13:27:44;27.40;52.90
8711;DHT22;4392;47.400;8.062;2022-07-31T13:30:10;27.50;53.00
8711;DHT22;4392;47.400;8.062;2022-07-31T13:32:39;27.60;52.60
8711;DHT22;4392;47.400;8.062;2022-07-31T13:35:05;27.60;53.00
8711;DHT22;4392;47.400;8.062;2022-07-31T13:37:32;27.70;52.80
8711;DHT22;4392;47.400;8.062;2022-07-31T13:40:00;27.80;51.70
8711;DHT22;4392;47.400;8.062;2022-07-31T13:42:26;27.90;52.20
8711;DHT22;4392;47.400;8.062;2022-07-31T13:44:52;28.20;51.30
8711;DHT22;4392;47.400;8.062;2022-07-31T13:47:17;28.20;51.50
8711;DHT22;4392;47.400;8.062;2022-07-31T13:49:43;28.60;51.10
8711;DHT22;4392;47.400;8.062;2022-07-31T13:52:08;28.40;50.50
8711;DHT22;4392;47.400;8.062;2022-07-31T13:54:34;28.20;50.70
8711;DHT22;4392;47.400;8.062;2022-07-31T13:57:00;28.00;50.80
8711;DHT22;4392;47.400;8.062;2022-07-31T13:59:28;27.90;51.10
8711;DHT22;4392;47.400;8.062;2022-07-31T14:01:56;27.80;51.50
8711;DHT22;4392;47.400;8.062;2022-07-31T14:04:21;27.80;51.40
8711;DHT22;4392;47.400;8.062;2022-07-31T14:06:47;27.80;51.20
8711;DHT22;4392;47.400;8.062;2022-07-31T14:09:13;27.90;50.90
8711;DHT22;4392;47.400;8.062;2022-07-31T14:11:43;28.10;50.50
8711;DHT22;4392;47.400;8.062;2022-07-31T14:14:09;28.40;50.50
8711;DHT22;4392;47.400;8.062;2022-07-31T14:16:35;28.80;50.40
8711;DHT22;4392;47.400;8.062;2022-07-31T14:19:01;28.90;49.40
8711;DHT22;4392;47.400;8.062;2022-07-31T14:21:26;28.90;48.50
8711;DHT22;4392;47.400;8.062;2022-07-31T14:23:52;28.80;48.70
8711;DHT22;4392;47.400;8.062;2022-07-31T14:26:18;28.70;48.50
8711;DHT22;4392;47.400;8.062;2022-07-31T14:28:43;29.00;47.90
8711;DHT22;4392;47.400;8.062;2022-07-31T14:31:09;29.00;47.60
8711;DHT22;4392;47.400;8.062;2022-07-31T14:33:36;29.00;47.60
8711;DHT22;4392;47.400;8.062;2022-07-31T14:36:01;29.20;47.10
8711;DHT22;4392;47.400;8.062;2022-07-31T14:38:29;29.30;46.90
8711;DHT22;4392;47.400;8.062;2022-07-31T14:40:55;29.50;46.30
8711;DHT22;4392;47.400;8.062;2022-07-31T14:43:20;29.60;46.30
8711;DHT22;4392;47.400;8.062;2022-07-31T14:45:46;29.70;46.40
8711;DHT22;4392;47.400;8.062;2022-07-31T14:48:14;29.80;46.60
8711;DHT22;4392;47.400;8.062;2022-07-31T14:50:39;30.10;46.20
8711;DHT22;4392;47.400;8.062;2022-07-31T14:53:09;30.30;45.50
8711;DHT22;4392;47.400;8.062;2022-07-31T14:55:35;30.20;45.40
8711;DHT22;4392;47.400;8.062;2022-07-31T14:58:01;30.30;46.00
8711;DHT22;4392;47.400;8.062;2022-07-31T15:00:27;30.80;45.00
8711;DHT22;4392;47.400;8.062;2022-07-31T15:02:53;30.90;44.90
8711;DHT22;4392;47.400;8.062;2022-07-31T15:05:21;30.70;44.60
8711;DHT22;4392;47.400;8.062;2022-07-31T15:07:49;30.80;43.80
8711;DHT22;4392;47.400;8.062;2022-07-31T15:10:19;31.00;43.50
8711;DHT22;4392;47.400;8.062;2022-07-31T15:12:44;31.00;43.50
8711;DHT22;4392;47.400;8.062;2022-07-31T15:15:10;30.70;43.70
8711;DHT22;4392;47.400;8.062;2022-07-31T15:17:36;30.60;44.20
8711;DHT22;4392;47.400;8.062;2022-07-31T15:20:03;30.60;43.90
8711;DHT22;4392;47.400;8.062;2022-07-31T15:22:31;30.60;44.20
8711;DHT22;4392;47.400;8.062;2022-07-31T15:24:58;30.80;43.60
8711;DHT22;4392;47.400;8.062;2022-07-31T15:27:24;31.00;43.00
8711;DHT22;4392;47.400;8.062;2022-07-31T15:29:50;31.00;42.20
8711;DHT22;4392;47.400;8.062;2022-07-31T15:32:15;30.70;43.20
8711;DHT22;4392;47.400;8.062;2022-07-31T15:34:41;30.40;43.60
8711;DHT22;4392;47.400;8.062;2022-07-31T15:37:07;30.30;44.20
8711;DHT22;4392;47.400;8.062;2022-07-31T15:39:33;30.10;44.50
8711;DHT22;4392;47.400;8.062;2022-07-31T15:41:58;30.00;44.50
8711;DHT22;4392;47.400;8.062;2022-07-31T15:44:24;30.00;44.30
8711;DHT22;4392;47.400;8.062;2022-07-31T15:46:50;30.20;43.90
8711;DHT22;4392;47.400;8.062;2022-07-31T15:49:16;30.20;43.60
8711;DHT22;4392;47.400;8.062;2022-07-31T15:51:41;30.30;44.20
8711;DHT22;4392;47.400;8.062;2022-07-31T15:54:07;30.20;45.30
8711;DHT22;4392;47.400;8.062;2022-07-31T15:56:33;30.10;44.80
8711;DHT22;4392;47.400;8.062;2022-07-31T15:59:01;30.20;45.60
8711;DHT22;4392;47.400;8.062;2022-07-31T16:01:26;30.30;46.30
8711;DHT22;4392;47.400;8.062;2022-07-31T16:03:52;30.20;46.60
8711;DHT22;4392;47.400;8.062;2022-07-31T16:06:18;30.00;46.60
8711;DHT22;4392;47.400;8.062;2022-07-31T16:08:43;29.80;47.50
8711;DHT22;4392;47.400;8.062;2022-07-31T16:11:09;29.80;48.40
8711;DHT22;4392;47.400;8.062;2022-07-31T16:13:35;29.80;50.90
8711;DHT22;4392;47.400;8.062;2022-07-31T16:16:02;29.70;47.30
8711;DHT22;4392;47.400;8.062;2022-07-31T16:18:28;29.60;47.20
8711;DHT22;4392;47.400;8.062;2022-07-31T16:20:54;29.50;47.00